Ulrum, Netherlands
Current Conditions -  °F | °C
As of 10:25 PM on Saturday 20 Dec 2014 (Local Time) from EHMA Reporting Station
Scattered Clouds Scattered Clouds  
Wind Chill: 39°   Ceiling: Unl
Heat Index: 48°   Visibility: 6mi
Dew Point: 39°   Wind: 38mph
Humidity: 71%   Direction: 300°WNW
Pressure: 30.12"   Gusts: NA
Location:  53.36°N, 6.33°E
Report Text: EHMA 202125Z AUTO 30033KT 9999 SCT029/// SCT032/// 09/04 Q1020
Loading
Personal Weather Stations






























Interactive Weather Map New forecast layout! Learn more

10-Day Weather Forecast

Advertisements
Track Severe Weather on mobile